Terminal Aerodrome Forecast
Issued by NWS

Home | Current Version | Previous Version | Text Only | Print | Product List | Glossary On
Versions: 1 2 3 4 5 6 7 8 9 10 11 12 13 14 15 16 17 18
395
FTUS43 KSGF 221722
TAFJLN
TAF
KJLN 221722Z 2218/2318 11013KT P6SM OVC040
     FM230900 14012KT P6SM -DZ OVC030
     FM231300 15013G21KT P6SM BKN025
     FM231700 16015G23KT P6SM SCT150=

USA.gov is the U.S. government's official web portal to all federal, state and local government web resources and services.